Flight Track Log - Related Links

Times and Time Zones

All times are in EDT time to prevent confusion due to time zone crossing. See the N749SS flight status page for this flight to view local times or setup timezone preferences in your user account.

Time Position Orientation Groundspeed Altitude Reporting Facility
EDT Latitude Longitude Course Direction KTS MPH feet Rate Location/Type
Thu 03:04:50 PM 26.2336 -81.6508 342° North 250 288 7,000  Level Miami Center
Thu 03:05:50 PM 26.3078 -81.6214 20° North 263 303 10,300 3,050 Climbing Miami Center
Thu 03:06:50 PM 26.3903 -81.6525 341° North 278 320 13,100 2,550 Climbing Miami Center
Thu 03:07:50 PM 26.4811 -81.6769 346° North 315 362 15,400 2,100 Climbing Miami Center
Thu 03:08:50 PM 26.5850 -81.6950 351° North 336 387 17,300 1,850 Climbing Miami Center
Thu 03:09:00 PM 26.7763 -81.4918 342° North  Level Estimated
Thu 03:09:50 PM 26.6953 -81.7067 355° North 376 433 19,100  Level Miami Center
Thu 03:10:50 PM 26.8075 -81.7206 354° North 392 451 21,000 1,950 Climbing Miami Center
Thu 03:11:50 PM 26.9219 -81.7322 355° North 403 464 23,000 2,050 Climbing Miami Center
Thu 03:12:50 PM 27.0361 -81.7489 353° North 408 470 25,100 1,950 Climbing Miami Center
Thu 03:13:50 PM 27.1497 -81.7886 343° North 414 476 26,900 1,850 Climbing Miami Center
Thu 03:14:50 PM 27.2486 -81.8256 342° North 414 476 28,800 2,050 Climbing Miami Center
Thu 03:15:50 PM 27.3744 -81.8683 343° North 422 486 31,000 1,800 Climbing Miami Center
Thu 03:16:50 PM 27.4872 -81.8661 North 416 479 32,400 1,600 Climbing Miami Center
Thu 03:17:50 PM 27.6044 -81.8525 North 412 474 34,200 1,600 Climbing Miami Center
Thu 03:18:50 PM 27.7136 -81.8386 North 428 493 35,600 1,450 Climbing Miami Center
Thu 03:19:50 PM 27.8331 -81.8250 North 428 493 37,100 1,500 Climbing Miami Center
Thu 03:20:50 PM 27.9461 -81.8089 North 423 487 38,600 950 Climbing Miami Center
Thu 03:21:50 PM 28.0592 -81.7972 North 418 481 39,000 200 Climbing Miami Center
Thu 03:22:50 PM 28.1786 -81.7836 North 418 481 39,000  Level Miami Center
Thu 03:23:50 PM 28.2939 -81.7700 North 418 481 39,000  Level Miami Center
Thu 03:24:50 PM 28.4133 -81.7539 North 423 487 39,000  Level Miami Center
Thu 03:25:50 PM 28.5286 -81.7378 North 423 487 39,000  Level Miami Center
Thu 03:26:29 PM 28.6017 -81.7317 North 433 498 39,000  Level Jacksonville Center
Thu 03:27:29 PM 28.7206 -81.7183 North 433 498 39,000  Level Jacksonville Center
Thu 03:28:29 PM 28.8331 -81.7028 North 433 498 39,000  Level Jacksonville Center
Thu 03:29:30 PM 28.9478 -81.6872 North 399 459 39,000  Level Jacksonville Center
Thu 03:30:29 PM 29.0644 -81.6714 North 405 466 39,000  Level Jacksonville Center
Thu 03:31:29 PM 29.1769 -81.6558 North 405 466 39,000  Level Jacksonville Center
Thu 03:32:29 PM 29.3042 -81.6328 North 405 466 39,000  Level Jacksonville Center
Thu 03:33:29 PM 29.4208 -81.6100 10° North 412 474 39,000  Level Jacksonville Center
Thu 03:34:29 PM 29.5353 -81.5822 12° North 417 480 39,000  Level Jacksonville Center
Thu 03:35:29 PM 29.6519 -81.5542 12° North 417 480 39,000  Level Jacksonville Center
Thu 03:36:29 PM 29.7667 -81.5311 10° North 417 480 39,000  Level Jacksonville Center
Thu 03:37:29 PM 29.8811 -81.5008 13° North 417 480 39,000  Level Jacksonville Center
Thu 03:38:30 PM 29.9997 -81.4753 11° North 422 486 39,000  Level Jacksonville Center
Thu 03:39:29 PM 30.1164 -81.4494 11° North 427 491 39,000  Level Jacksonville Center
Thu 03:40:29 PM 30.2350 -81.4236 11° North 427 491 39,000  Level Jacksonville Center
Thu 03:41:29 PM 30.3517 -81.3953 12° North 427 491 39,000  Level Jacksonville Center
Thu 03:42:29 PM 30.4725 -81.3692 11° North 427 491 39,000 250 Level Jacksonville Center
Thu 03:43:29 PM 30.5892 -81.3433 11° North 427 491 39,500 850 Climbing Jacksonville Center
Thu 03:44:29 PM 30.7036 -81.3172 11° North 422 486 40,700 750 Climbing Jacksonville Center
Thu 03:45:29 PM 30.8078 -81.2939 11° North 422 486 41,000 150 Climbing Jacksonville Center
Thu 03:46:29 PM 30.9200 -81.2678 11° North 422 486 41,000  Level Jacksonville Center
Thu 03:47:30 PM 31.0306 -81.2439 10° North 408 470 41,000  Level Jacksonville Center
Thu 03:48:29 PM 31.1450 -81.2178 11° North 408 470 41,000  Level Jacksonville Center
Thu 03:49:29 PM 31.2553 -81.1939 10° North 408 470 41,000  Level Jacksonville Center
Thu 03:50:29 PM 31.3736 -81.1431 20° North 403 464 41,000  Level Jacksonville Center
Thu 03:51:29 PM 31.4750 -81.0706 31° Northeast 419 482 41,000  Level Jacksonville Center
Thu 03:52:29 PM 31.5678 -81.0028 32° Northeast 432 497 41,000  Level Jacksonville Center
Thu 03:53:29 PM 31.6794 -80.9225 31° Northeast 426 490 41,000  Level Jacksonville Center
Thu 03:54:29 PM 31.7722 -80.8544 32° Northeast 426 490 41,000  Level Jacksonville Center
Thu 03:55:29 PM 31.8858 -80.7736 31° Northeast 426 490 41,000  Level Jacksonville Center
Thu 03:56:29 PM 31.9911 -80.7003 31° Northeast 432 497 41,000  Level Jacksonville Center
Thu 03:57:29 PM 32.0836 -80.6319 32° Northeast 432 497 41,000  Level Jacksonville Center
Thu 03:59:29 PM 32.3000 -80.4767 31° Northeast 432 497 41,000  Level Jacksonville Center
Thu 04:00:29 PM 32.4050 -80.4000 32° Northeast 427 491 41,000  Level Jacksonville Center
Thu 04:01:29 PM 32.5078 -80.3233 32° Northeast 427 491 41,000  Level Jacksonville Center
Thu 04:02:29 PM 32.6086 -80.2489 32° Northeast 427 491 41,000  Level Jacksonville Center
Thu 04:03:29 PM 32.7114 -80.1719 32° Northeast 427 491 41,000  Level Jacksonville Center
Thu 04:04:29 PM 32.8142 -80.0944 32° Northeast 427 491 41,000  Level Jacksonville Center
Thu 04:05:29 PM 32.9167 -80.0122 34° Northeast 427 491 41,000  Level Jacksonville Center
Thu 04:06:29 PM 33.0147 -79.9200 38° Northeast 438 504 41,000  Level Jacksonville Center
Thu 04:07:29 PM 33.1044 -79.8325 39° Northeast 450 518 41,000  Level Jacksonville Center
Thu 04:08:29 PM 33.2003 -79.7400 39° Northeast 451 519 41,000  Level Jacksonville Center
Thu 04:09:29 PM 33.2961 -79.6497 38° Northeast 451 519 41,000  Level Jacksonville Center
Thu 04:10:29 PM 33.3917 -79.5542 40° Northeast 451 519 41,000  Level Jacksonville Center
Thu 04:11:29 PM 33.4914 -79.4583 39° Northeast 451 519 41,000  Level Jacksonville Center
Thu 04:12:29 PM 33.5867 -79.3622 40° Northeast 446 513 41,000  Level Jacksonville Center
Thu 04:14:49 PM 33.7997 -79.1528 39° Northeast 450 518 41,000  Level Washington Center
Thu 04:15:46 PM 33.8986 -79.0544 40° Northeast 450 518 41,000  Level Washington Center
Thu 04:16:48 PM 33.9950 -78.9581 40° Northeast 450 518 41,000  Level Washington Center
Thu 04:17:48 PM 34.0917 -78.8617 40° Northeast 450 518 41,000  Level Washington Center
Thu 04:18:46 PM 34.1881 -78.7678 39° Northeast 444 511 41,000  Level Washington Center
Thu 04:19:46 PM 34.2825 -78.6708 40° Northeast 439 505 41,000  Level Washington Center
Thu 04:20:48 PM 34.3808 -78.5739 39° Northeast 439 505 41,000  Level Washington Center
Thu 04:21:46 PM 34.4750 -78.4764 40° Northeast 439 505 41,000 -504 Level Washington Center
Thu 04:22:47 PM 34.5839 -78.3719 38° Northeast 449 517 40,000 -992 Descending Washington Center
Thu 04:23:47 PM 34.6903 -78.2897 32° Northeast 449 517 39,000 -496 Descending Washington Center
Thu 04:24:48 PM 34.7942 -78.2072 33° Northeast 449 517 39,000  Level Washington Center
Thu 04:25:48 PM 34.9003 -78.1219 33° Northeast 449 517 39,000  Level Washington Center
Thu 04:26:49 PM 35.0086 -78.0339 34° Northeast 449 517 39,000  Level Washington Center
Thu 04:27:46 PM 35.1125 -77.9483 34° Northeast 449 517 39,000  Level Washington Center
Thu 04:28:47 PM 35.2186 -77.8625 33° Northeast 449 517 39,000  Level Washington Center
Thu 04:29:47 PM 35.3267 -77.7764 33° Northeast 449 517 39,000  Level Washington Center
Thu 04:30:46 PM 35.4325 -77.6925 33° Northeast 449 517 39,000  Level Washington Center
Thu 04:31:47 PM 35.5403 -77.6033 34° Northeast 449 517 39,000  Level Washington Center
Thu 04:32:48 PM 35.6503 -77.5167 33° Northeast 449 517 39,000  Level Washington Center
Thu 04:33:46 PM 35.7561 -77.4272 34° Northeast 449 517 39,000  Level Washington Center
Thu 04:34:46 PM 35.8636 -77.3400 33° Northeast 449 517 39,000  Level Washington Center
Thu 04:35:46 PM 35.9692 -77.2525 34° Northeast 455 524 39,000  Level Washington Center
Thu 04:36:48 PM 36.0747 -77.1647 34° Northeast 455 524 39,000  Level Washington Center
Thu 04:37:48 PM 36.1781 -77.0767 35° Northeast 450 518 39,000  Level Washington Center
Thu 04:38:48 PM 36.2836 -76.9911 33° Northeast 445 512 39,000  Level Washington Center
Thu 04:39:47 PM 36.3908 -76.9028 34° Northeast 445 512 39,000  Level Washington Center
Thu 04:40:48 PM 36.4942 -76.8139 35° Northeast 445 512 39,000  Level Washington Center
Thu 04:41:48 PM 36.5992 -76.7278 33° Northeast 445 512 39,000  Level Washington Center
Thu 04:42:47 PM 36.7044 -76.6411 33° Northeast 445 512 39,000  Level Washington Center
Thu 04:43:48 PM 36.8094 -76.5467 36° Northeast 450 518 39,000  Level Washington Center
Thu 04:44:49 PM 36.9122 -76.4569 35° Northeast 455 524 39,000  Level Washington Center
Thu 04:45:46 PM 37.0089 -76.3747 34° Northeast 455 524 39,000  Level Washington Center
Thu 04:46:47 PM 37.1136 -76.2819 35° Northeast 450 518 39,000  Level Washington Center
Thu 04:47:47 PM 37.2186 -76.1944 34° Northeast 450 518 39,000  Level Washington Center
Thu 04:48:47 PM 37.3400 -76.0986 32° Northeast 450 518 39,000  Level Washington Center
Thu 04:49:48 PM 37.4444 -76.0078 35° Northeast 460 529 39,000  Level Washington Center
Thu 04:50:48 PM 37.5367 -75.9269 35° Northeast 460 529 39,000  Level Washington Center
Thu 04:51:46 PM 37.6411 -75.8358 35° Northeast 455 524 39,000  Level Washington Center
Thu 04:52:46 PM 37.7475 -75.7414 35° Northeast 455 524 39,000  Level Washington Center
Thu 04:53:46 PM 37.8519 -75.6497 35° Northeast 455 524 39,000  Level Washington Center
Thu 04:54:47 PM 37.9561 -75.5603 34° Northeast 450 518 39,000  Level Washington Center
Thu 04:55:48 PM 38.0606 -75.4678 35° Northeast 450 518 39,000  Level Washington Center
Thu 04:56:48 PM 38.1708 -75.3936 28° Northeast 444 511 39,000  Level Washington Center
Thu 04:57:47 PM 38.2833 -75.3247 26° Northeast 439 505 39,000  Level Washington Center
Thu 04:58:48 PM 38.4042 -75.2472 27° Northeast 434 499 39,000  Level Washington Center
Thu 04:59:49 PM 38.5164 -75.1750 27° Northeast 434 499 39,000  Level Washington Center
Thu 05:00:46 PM 38.6286 -75.1028 27° Northeast 439 505 39,000  Level Washington Center
Thu 05:01:46 PM 38.7411 -75.0328 26° Northeast 444 511 39,000  Level Washington Center
Thu 05:02:47 PM 38.8531 -74.9600 27° Northeast 444 511 39,000 -496 Level Washington Center
Thu 05:03:47 PM 38.9675 -74.8867 26° Northeast 444 511 38,000 -1,240 Descending Washington Center
Thu 05:04:48 PM 39.0836 -74.8081 28° Northeast 449 517 36,500 -1,835 Descending Washington Center
Thu 05:05:48 PM 39.1914 -74.7053 36° Northeast 463 533 34,300 -2,542 Descending Washington Center
Thu 05:06:46 PM 39.2967 -74.5939 39° Northeast 470 541 31,500 -2,975 Descending Washington Center
Thu 05:07:47 PM 39.4000 -74.4850 39° Northeast 480 552 28,400 -3,083 Descending Washington Center
Thu 05:09:10 PM 39.5533 -74.3275 38° Northeast 495 570 24,100 -2,014 Descending New York Center
Thu 05:10:10 PM 39.6633 -74.2092 40° Northeast 501 577 23,600 -550 Descending New York Center
Thu 05:11:10 PM 39.7708 -74.0956 39° Northeast 501 577 23,000 -300 Descending New York Center
Thu 05:12:10 PM 39.8697 -73.9894 39° Northeast 483 556 23,000 -600 Level New York Center
Thu 05:13:10 PM 39.9556 -73.8986 39° Northeast 436 502 21,800 -1,415 Descending New York Center
Thu 05:15:42 PM 40.1364 -73.6486 47° Northeast 389 448 18,000 -1,056 Descending Boston Center
Thu 05:16:46 PM 40.1928 -73.5292 58° Northeast 387 445 18,000  Level Boston Center
Thu 05:17:44 PM 40.2514 -73.4108 57° Northeast 391 450 18,000  Level Boston Center
Thu 05:18:48 PM 40.3189 -73.3097 49° Northeast 373 429 18,000  Level Boston Center
Thu 05:19:48 PM 40.3786 -73.2111 51° Northeast 349 402 18,000  Level Boston Center
Thu 05:20:49 PM 40.4464 -73.1006 51° Northeast 326 375 18,000  Level Boston Center
Thu 05:21:52 PM 40.5036 -73.0072 51° Northeast 328 377 18,000  Level Boston Center
Thu 05:22:52 PM 40.5619 -72.9111 51° Northeast 338 389 18,000  Level Boston Center
Thu 05:23:52 PM 40.6200 -72.8142 52° Northeast 339 390 18,000  Level Boston Center
Thu 05:24:56 PM 40.6769 -72.7208 51° Northeast 334 384 18,000  Level Boston Center
Thu 05:25:56 PM 40.7331 -72.6264 52° Northeast 332 382 18,000  Level Boston Center
Thu 05:26:57 PM 40.7894 -72.5322 52° Northeast 333 383 18,000  Level Boston Center
Thu 05:27:58 PM 40.8597 -72.4169 51° Northeast 340 391 18,000  Level Boston Center
Thu 05:28:59 PM 40.9183 -72.3194 51° Northeast 341 392 18,000  Level Boston Center
Thu 05:30:00 PM 40.9258 -72.2067 85° East 335 386 18,000 -48 Level Boston Center
Thu 05:31:04 PM 40.8597 -72.2069 180° South 261 300 17,900 -384 Descending Boston Center
Thu 05:32:05 PM 40.8203 -72.2778 234° Southwest 240 276 17,200 -984 Descending Boston Center
Thu 05:33:06 PM 40.7864 -72.3539 240° Southwest 245 282 15,900 -1,388 Descending Boston Center
Thu 05:34:06 PM 40.7436 -72.4425 238° Southwest 281 323 14,400 -1,537 Descending Boston Center
Thu 05:35:07 PM 40.7031 -72.5308 239° Southwest 280 322 12,800 -1,537 Descending Boston Center
Thu 05:36:07 PM 40.6642 -72.6167 239° Southwest 272 313 11,300 -871 Descending Boston Center
Thu 05:37:11 PM 40.6319 -72.7008 243° Southwest 261 300 11,000 -435 Descending Boston Center
Thu 05:38:11 PM 40.6897 -72.7522 326° Northwest 282 325 10,400 -843 Descending Boston Center
Thu 05:39:12 PM 40.7714 -72.7392 North 292 336 9,300 -1,180 Descending Boston Center
Thu 05:40:13 PM 40.8519 -72.7236 North 291 335 8,000 -1,131 Descending Boston Center
Thu 05:41:14 PM 40.9431 -72.7069 North 304 350 7,000 -484 Descending Boston Center
Thu 05:42:17 PM 41.0003 -72.7617 324° Northwest 283 326 7,000  Level Boston Center
Thu 05:43:18 PM 41.0281 -72.8694 289° West 265 305 7,000 -689 Level Boston Center
Thu 05:44:19 PM 41.0503 -72.9597 288° West 261 300 5,600 -1,377 Descending Boston Center
Thu 05:45:20 PM 41.0711 -73.0444 288° West 251 289 4,200 -871 Descending Boston Center
Thu 05:46:23 PM 41.0911 -73.1253 288° West 238 274 3,800 -97 Descending Boston Center
Thu 05:47:24 PM 41.1119 -73.2075 289° West 235 270 4,000 98 Climbing Boston Center
Thu 05:48:25 PM 41.1325 -73.2919 288° West 239 275 4,000 47 Level Boston Center
Thu 05:49:33 PM 41.1667 -73.4000 293° West 233 268 4,100 47 Climbing New York TRACON
Thu 05:50:33 PM 41.1833 -73.4833 285° West 219 252 4,100  Level New York TRACON
Thu 05:51:33 PM 41.2000 -73.5500 288° West 248 285 4,100 -50 Level New York TRACON
Thu 05:52:33 PM 41.2500 -73.6333 309° West 248 285 4,000 -50 Descending New York TRACON
Thu 05:53:33 PM 41.2833 -73.7000 304° West 221 254 4,000  Level New York TRACON
Thu 05:54:33 PM 41.3167 -73.7500 312° West 176 203 4,000 -100 Level New York TRACON
Thu 05:55:33 PM 41.3500 -73.8000 312° West 174 200 3,800 -522 Descending New York TRACON
Thu 05:56:28 PM 41.3500 -73.8500 270° West 155 178 3,000 -400 Descending New York TRACON
Thu 05:57:33 PM 41.3000 -73.8667 194° South 156 180 3,000  Level New York TRACON
Thu 05:58:33 PM 41.2667 -73.8500 159° South 162 186 3,000  Level New York TRACON
Thu 05:59:33 PM 41.2167 -73.8167 153° Southeast 165 190 3,000 -100 Level New York TRACON
Thu 06:00:33 PM 41.1833 -73.8000 159° South 166 191 2,800 -522 Descending New York TRACON
Thu 06:01:28 PM 41.1500 -73.7667 143° Southeast 157 181 2,000 -750 Descending New York TRACON
Thu 06:02:33 PM 41.1167 -73.7333 143° Southeast 128 147 1,300 -646 Descending New York TRACON

Login

Don't have an account? Register now (free) for customized features, flight alerts, and more!